Time;durP1;ratioP1;P1;durP2;ratioP2;P2;SDS_P1;SDS_P2;PMS_P1;PMS_P2;Temp;Humidity;BMP_temperature;BMP_pressure;BME280_temperature;BME280_humidity;BME280_pressure;Samples;Min_cycle;Max_cycle;Signal;HPM_P1;HPM_P2
2022/03/30 00:01:36;;;;;;;23.35;15.35;;;;;;;8.79;100.00;99702.94;5235821;22;20120;-69
2022/03/30 00:04:02;;;;;;;22.92;15.57;;;;;;;8.48;100.00;99634.44;4645915;28;10001589;-69
2022/03/30 00:06:27;;;;;;;21.38;15.43;;;;;;;8.71;100.00;99695.50;4992958;28;20041;-69
2022/03/30 00:08:53;;;;;;;21.13;15.15;;;;;;;8.55;100.00;99678.19;4994918;28;20523;-69
2022/03/30 00:11:19;;;;;;;24.02;15.15;;;;;;;7.84;100.00;99646.97;5001378;28;20168;-69
2022/03/30 00:13:44;;;;;;;23.63;17.00;;;;;;;8.16;100.00;99641.16;4992064;28;20026;-69
2022/03/30 00:16:10;;;;;;;23.83;16.55;;;;;;;8.09;100.00;99601.66;4992816;28;20026;-68
2022/03/30 00:18:36;;;;;;;24.58;17.02;;;;;;;8.58;100.00;99694.16;4992589;28;20037;-69
2022/03/30 00:21:01;;;;;;;24.95;16.75;;;;;;;7.84;100.00;99596.34;4991588;28;20022;-67
2022/03/30 00:23:27;;;;;;;23.13;16.23;;;;;;;8.36;100.00;99698.06;4991345;28;20029;-69
2022/03/30 00:25:52;;;;;;;23.35;15.43;;;;;;;8.69;100.00;99696.44;4992576;28;20023;-69
2022/03/30 00:28:18;;;;;;;24.77;15.65;;;;;;;8.49;100.00;99685.94;4992762;28;20034;-67
2022/03/30 00:30:43;;;;;;;29.98;16.00;;;;;;;8.08;100.00;99676.75;4991207;28;20030;-69
2022/03/30 00:33:09;;;;;;;21.90;15.25;;;;;;;7.78;100.00;99630.19;4991229;28;20026;-67
2022/03/30 00:35:35;;;;;;;20.05;14.23;;;;;;;8.91;100.00;99686.56;4992416;28;20569;-69
2022/03/30 00:38:01;;;;;;;22.23;14.85;;;;;;;8.65;100.00;99694.84;4991022;28;20175;-67
2022/03/30 00:40:26;;;;;;;22.10;15.25;;;;;;;8.17;100.00;99660.53;4992145;28;20420;-69
2022/03/30 00:42:52;;;;;;;22.92;15.85;;;;;;;7.98;100.00;99654.22;4991131;28;20034;-68
2022/03/30 00:45:21;;;;;;;20.73;15.52;;;;;;;8.04;100.00;99659.16;4991048;28;20041;-67
2022/03/30 00:47:47;;;;;;;21.75;16.55;;;;;;;7.72;100.00;99589.88;4992256;28;20463;-67
2022/03/30 00:50:18;;;;;;;24.10;16.50;;;;;;;7.98;100.00;99644.94;4992186;28;20488;-68
2022/03/30 00:52:50;;;;;;;22.10;16.10;;;;;;;7.83;100.00;99615.75;4991719;28;20041;-68
2022/03/30 00:55:17;;;;;;;24.55;16.38;;;;;;;8.09;100.00;99696.16;4990976;28;20472;-68
2022/03/30 00:57:43;;;;;;;24.00;16.30;;;;;;;7.78;100.00;99672.41;4992135;28;20034;-68
2022/03/30 01:00:12;;;;;;;23.30;15.88;;;;;;;7.79;100.00;99690.06;4992097;28;20091;-67
2022/03/30 01:02:39;;;;;;;22.90;15.10;;;;;;;8.13;100.00;99689.31;5009684;28;20123;-67
2022/03/30 01:05:06;;;;;;;26.35;15.45;;;;;;;7.76;100.00;99624.34;5030882;28;20040;-67
2022/03/30 01:07:32;;;;;;;23.23;16.10;;;;;;;7.99;100.00;99687.09;5031818;28;20026;-67
2022/03/30 01:09:57;;;;;;;24.05;15.70;;;;;;;8.12;100.00;99682.59;5031483;28;20380;-68
2022/03/30 01:12:23;;;;;;;22.13;15.55;;;;;;;7.76;100.00;99669.88;5031057;28;20179;-68
2022/03/30 01:14:49;;;;;;;24.13;15.75;;;;;;;7.49;100.00;99608.94;5031279;28;20065;-68
2022/03/30 01:17:14;;;;;;;21.13;15.93;;;;;;;7.60;100.00;99672.78;5031036;28;20450;-68
2022/03/30 01:19:40;;;;;;;20.83;15.18;;;;;;;7.60;100.00;99622.19;5030859;28;20036;-68
2022/03/30 01:22:07;;;;;;;21.60;15.90;;;;;;;7.91;100.00;99678.84;5030914;28;20033;-68
2022/03/30 01:24:34;;;;;;;24.33;16.02;;;;;;;7.47;100.00;99592.97;5030857;28;20493;-68
2022/03/30 01:26:59;;;;;;;21.90;16.13;;;;;;;8.06;100.00;99632.09;5030930;28;20030;-68
2022/03/30 01:32:27;;;;;;;26.98;17.17;;;;;;;7.29;100.00;99551.22;5030607;28;20098;-67
2022/03/30 01:34:54;;;;;;;24.00;16.73;;;;;;;7.85;100.00;99641.00;5030647;28;20469;-68
2022/03/30 01:37:20;;;;;;;23.05;16.40;;;;;;;8.10;100.00;99652.22;5029405;28;20407;-68
2022/03/30 01:39:45;;;;;;;20.45;15.77;;;;;;;8.06;100.00;99653.16;5029462;28;20495;-68
2022/03/30 01:42:11;;;;;;;25.65;16.42;;;;;;;7.60;100.00;99576.66;5030565;28;20105;-68
2022/03/30 01:44:38;;;;;;;22.20;16.67;;;;;;;8.31;100.00;99653.47;5030680;28;20029;-68
2022/03/30 01:47:04;;;;;;;24.60;17.10;;;;;;;7.45;100.00;99633.47;5030507;28;20460;-68
2022/03/30 01:49:29;;;;;;;25.35;17.50;;;;;;;7.38;100.00;99623.50;5025065;28;20033;-69
2022/03/30 01:51:57;;;;;;;22.20;16.55;;;;;;;7.86;100.00;99668.00;5023407;28;20041;-69
2022/03/30 01:54:27;;;;;;;22.92;16.17;;;;;;;7.97;100.00;99683.75;5030654;28;20034;-68
2022/03/30 01:56:54;;;;;;;27.90;18.48;;;;;;;7.90;100.00;99664.53;5030447;28;20131;-68
2022/03/30 01:59:20;;;;;;;24.77;18.70;;;;;;;7.53;100.00;99668.69;5030292;28;20033;-69
2022/03/30 02:01:46;;;;;;;24.05;18.33;;;;;;;7.86;100.00;99666.28;5030133;28;20066;-69
2022/03/30 02:04:13;;;;;;;23.52;17.63;;;;;;;7.29;100.00;99622.00;5030813;28;20029;-68
2022/03/30 02:06:38;;;;;;;23.70;18.27;;;;;;;7.67;100.00;99679.34;5030563;28;20083;-68
2022/03/30 02:09:05;;;;;;;23.42;17.73;;;;;;;7.20;100.00;99601.13;5030164;28;20029;-68
2022/03/30 02:11:31;;;;;;;21.98;16.27;;;;;;;7.73;100.00;99615.97;5030611;28;20080;-69
2022/03/30 02:13:57;;;;;;;27.58;17.35;;;;;;;8.08;100.00;99676.75;5028726;28;20475;-68
2022/03/30 02:16:24;;;;;;;22.15;16.25;;;;;;;7.23;100.00;99619.59;5028811;28;20037;-68
2022/03/30 02:18:49;;;;;;;24.50;16.85;;;;;;;6.84;100.00;99602.69;5030445;28;20103;-69
2022/03/30 02:21:15;;;;;;;24.80;15.60;;;;;;;7.85;100.00;99623.31;5029151;28;20412;-68
2022/03/30 02:23:42;;;;;;;25.63;17.00;;;;;;;7.59;100.00;99676.16;5030176;28;20036;-69
2022/03/30 02:26:08;;;;;;;25.20;16.75;;;;;;;7.12;100.00;99620.66;5029195;28;20037;-68
2022/03/30 02:28:33;;;;;;;21.98;16.63;;;;;;;8.11;100.00;99675.84;5030689;28;20095;-68
2022/03/30 02:30:59;;;;;;;23.55;17.17;;;;;;;7.10;100.00;99570.16;5029107;28;20025;-69
2022/03/30 02:33:25;;;;;;;25.83;17.20;;;;;;;7.24;100.00;99603.56;5028959;28;20483;-68
2022/03/30 02:35:51;;;;;;;26.95;18.02;;;;;;;7.53;100.00;99678.81;5031318;28;20545;-68
2022/03/30 02:38:17;;;;;;;22.17;17.63;;;;;;;7.28;100.00;99632.16;5032484;28;20087;-69
2022/03/30 02:40:43;;;;;;;23.55;17.77;;;;;;;7.37;100.00;99685.88;5033974;28;20029;-68
2022/03/30 02:43:10;;;;;;;24.95;17.65;;;;;;;7.22;100.00;99650.81;5033656;28;20037;-68
2022/03/30 02:45:35;;;;;;;25.17;18.90;;;;;;;7.06;100.00;99603.94;5032370;28;20535;-68
2022/03/30 02:48:19;;;;;;;25.35;18.80;;;;;;;7.18;100.00;99653.41;5032760;28;20145;-67
2022/03/30 02:50:50;;;;;;;23.10;16.95;;;;;;;7.45;100.00;99673.91;5033728;28;20053;-69
2022/03/30 02:53:16;;;;;;;26.10;17.15;;;;;;;6.72;100.00;99630.69;5032444;28;20108;-67
2022/03/30 02:55:42;;;;;;;21.20;16.35;;;;;;;5.96;100.00;99576.47;5032435;28;20073;-67
2022/03/30 02:58:09;;;;;;;20.88;16.35;;;;;;;6.47;100.00;99649.69;5033710;28;20037;-67
2022/03/30 03:00:35;;;;;;;25.67;16.23;;;;;;;6.71;100.00;99637.47;5033606;28;20407;-69
2022/03/30 03:03:02;;;;;;;24.90;17.42;;;;;;;6.53;100.00;99708.50;5033341;28;20136;-68
2022/03/30 03:05:31;;;;;;;24.77;18.02;;;;;;;6.65;100.00;99688.09;5032104;28;20502;-68
2022/03/30 03:07:58;;;;;;;23.60;17.48;;;;;;;6.62;100.00;99685.59;5033338;28;20040;-69
2022/03/30 03:10:25;;;;;;;23.38;18.08;;;;;;;6.35;100.00;99619.59;5032912;28;20044;-67
2022/03/30 03:12:52;;;;;;;23.05;17.35;;;;;;;6.41;100.00;99652.31;5052149;28;20032;-68
2022/03/30 03:15:17;;;;;;;25.38;17.38;;;;;;;6.46;100.00;99648.84;5040270;28;20022;-68
2022/03/30 03:17:43;;;;;;;23.23;17.15;;;;;;;6.42;100.00;99641.38;5033146;28;20026;-67
2022/03/30 03:20:10;;;;;;;24.38;17.45;;;;;;;6.41;100.00;99630.41;5024270;28;20040;-68
2022/03/30 03:22:35;;;;;;;26.55;17.90;;;;;;;6.49;100.00;99643.75;5033013;28;20037;-67
2022/03/30 03:25:01;;;;;;;24.77;17.38;;;;;;;6.99;100.00;99666.41;5032782;28;20078;-67
2022/03/30 03:27:28;;;;;;;27.15;18.85;;;;;;;6.36;100.00;99613.69;5032862;28;20033;-67
2022/03/30 03:29:54;;;;;;;32.05;20.23;;;;;;;6.00;100.00;99577.28;5032998;28;20040;-67
2022/03/30 03:32:20;;;;;;;28.30;19.85;;;;;;;6.63;100.00;99689.81;5032842;28;20033;-68
2022/03/30 03:34:45;;;;;;;25.02;19.80;;;;;;;6.73;100.00;99613.03;5031435;28;20033;-67
2022/03/30 03:37:11;;;;;;;28.08;19.70;;;;;;;6.69;100.00;99687.19;5033241;28;20407;-65
2022/03/30 03:39:37;;;;;;;30.13;20.70;;;;;;;6.48;100.00;99689.19;5045995;28;20879;-67
2022/03/30 03:42:03;;;;;;;28.73;20.95;;;;;;;6.60;100.00;99689.00;5051211;28;20420;-66
2022/03/30 03:44:28;;;;;;;29.10;21.15;;;;;;;6.87;100.00;99679.25;5052908;28;20025;-67
2022/03/30 03:46:54;;;;;;;29.10;20.23;;;;;;;6.59;100.00;99640.22;5052087;28;20052;-66
2022/03/30 03:49:20;;;;;;;31.70;21.35;;;;;;;6.39;100.00;99633.81;5052717;28;20021;-66
2022/03/30 03:51:46;;;;;;;27.35;20.63;;;;;;;6.27;100.00;99624.78;5067821;28;20021;-66
2022/03/30 03:54:11;;;;;;;28.48;19.83;;;;;;;5.81;100.00;99616.22;5067294;28;20068;-67
2022/03/30 03:56:37;;;;;;;32.67;21.77;;;;;;;6.14;100.00;99643.47;5052573;28;20064;-67
2022/03/30 03:59:03;;;;;;;33.33;22.08;;;;;;;6.24;100.00;99609.66;5052321;28;20500;-68
2022/03/30 04:01:29;;;;;;;32.45;23.30;;;;;;;6.60;100.00;99669.63;5052201;28;20040;-68
2022/03/30 04:03:55;;;;;;;28.85;21.80;;;;;;;7.26;100.00;99642.28;5050622;28;20149;-66
2022/03/30 04:06:21;;;;;;;34.58;22.70;;;;;;;6.78;100.00;99707.22;5052202;28;20033;-66
2022/03/30 04:08:48;;;;;;;32.33;23.17;;;;;;;7.06;100.00;99691.56;5051671;28;20033;-67
2022/03/30 04:11:14;;;;;;;29.90;21.50;;;;;;;7.17;100.00;99698.06;5052260;28;20029;-68
2022/03/30 04:13:39;;;;;;;31.00;22.40;;;;;;;6.99;100.00;99709.34;5052189;28;20040;-68
2022/03/30 04:16:05;;;;;;;43.45;19.58;;;;;;;9.23;100.00;99704.31;5058941;28;20083;-70
2022/03/30 04:18:31;;;;;;;30.17;21.85;;;;;;;6.52;100.00;99598.22;5033216;28;20044;-68
2022/03/30 04:20:56;;;;;;;42.33;20.83;;;;;;;7.88;100.00;99668.78;5030163;28;20029;-69
2022/03/30 04:23:22;;;;;;;34.42;24.83;;;;;;;7.34;100.00;99675.84;5029847;28;20120;-67
2022/03/30 04:25:47;;;;;;;32.97;23.08;;;;;;;7.10;100.00;99653.56;5031781;28;20550;-67
2022/03/30 04:28:17;;;;;;;33.58;21.45;;;;;;;7.23;100.00;99717.38;5031947;28;20037;-67
2022/03/30 04:30:43;;;;;;;29.33;20.65;;;;;;;7.03;100.00;99652.03;5031889;28;20044;-68
2022/03/30 04:33:09;;;;;;;34.60;22.20;;;;;;;7.41;100.00;99719.50;5031859;28;20048;-67
2022/03/30 04:35:35;;;;;;;49.85;33.97;;;;;;;7.16;100.00;99721.69;5031651;28;20040;-67
2022/03/30 04:38:01;;;;;;;46.13;32.80;;;;;;;7.25;100.00;99723.22;5031168;28;20013;-66
2022/03/30 04:40:28;;;;;;;37.08;26.08;;;;;;;7.58;100.00;99740.25;5030110;28;20032;-67
2022/03/30 04:42:54;;;;;;;34.53;23.63;;;;;;;7.48;100.00;99678.94;5031289;28;20038;-68
2022/03/30 04:45:20;;;;;;;37.15;25.65;;;;;;;7.73;100.00;99728.13;5031396;28;20037;-69
2022/03/30 04:47:46;;;;;;;36.72;23.85;;;;;;;7.40;100.00;99707.75;5031117;28;20029;-67
2022/03/30 04:50:12;;;;;;;33.78;23.75;;;;;;;7.78;100.00;99736.44;5030900;28;20060;-67
2022/03/30 04:52:39;;;;;;;39.97;26.33;;;;;;;7.83;100.00;99701.78;5031389;28;20052;-67
2022/03/30 04:55:06;;;;;;;38.65;24.40;;;;;;;7.33;100.00;99663.25;5031394;28;20033;-67
2022/03/30 04:57:31;;;;;;;29.88;21.17;;;;;;;7.73;100.00;99727.28;5031080;28;20022;-67
2022/03/30 04:59:57;;;;;;;32.10;22.38;;;;;;;7.56;100.00;99659.38;5030871;28;20025;-67
2022/03/30 05:02:22;;;;;;;35.40;22.55;;;;;;;7.75;100.00;99658.09;5030985;28;20056;-67
2022/03/30 05:04:49;;;;;;;34.40;24.00;;;;;;;7.37;100.00;99645.44;5031236;28;20083;-67
2022/03/30 05:07:14;;;;;;;34.75;23.30;;;;;;;7.42;100.00;99665.56;5031065;28;20033;-68
2022/03/30 05:09:40;;;;;;;34.40;22.95;;;;;;;7.73;100.00;99719.72;5031410;28;20033;-67
2022/03/30 05:12:06;;;;;;;33.15;22.20;;;;;;;7.07;100.00;99602.25;5031056;28;20109;-68
2022/03/30 05:14:33;;;;;;;32.63;22.77;;;;;;;7.23;100.00;99672.66;5031048;28;20109;-68
2022/03/30 05:16:59;;;;;;;33.28;22.30;;;;;;;7.36;100.00;99708.66;5030956;28;20064;-68
2022/03/30 05:19:24;;;;;;;32.88;22.67;;;;;;;7.27;100.00;99721.50;5030711;28;20094;-67
2022/03/30 05:21:50;;;;;;;32.40;24.52;;;;;;;7.27;100.00;99664.16;5031025;28;20029;-67
2022/03/30 05:24:15;;;;;;;37.88;24.17;;;;;;;7.42;100.00;99711.09;5030913;28;20048;-67
2022/03/30 05:26:41;;;;;;;32.42;23.88;;;;;;;7.60;100.00;99698.06;5031012;28;20108;-67
2022/03/30 05:29:06;;;;;;;34.03;24.45;;;;;;;7.97;100.00;99715.81;5031331;28;20033;-67
2022/03/30 05:31:32;;;;;;;32.50;23.90;;;;;;;7.75;100.00;99706.16;5030846;28;20060;-67
2022/03/30 05:33:57;;;;;;;32.15;23.33;;;;;;;8.13;100.00;99702.81;5030622;28;20116;-68
2022/03/30 05:36:23;;;;;;;30.83;24.52;;;;;;;8.48;100.00;99720.56;5029532;28;20040;-68
2022/03/30 05:38:50;;;;;;;32.53;24.05;;;;;;;8.30;100.00;99645.03;5031001;28;20041;-67
2022/03/30 05:41:17;;;;;;;33.03;23.85;;;;;;;8.25;100.00;99666.28;5030812;28;20372;-68
2022/03/30 05:43:43;;;;;;;34.22;23.85;;;;;;;8.53;100.00;99710.34;5031235;28;20051;-68
2022/03/30 05:46:08;;;;;;;32.42;24.15;;;;;;;8.42;100.00;99654.88;5030567;28;20542;-68
2022/03/30 05:48:34;;;;;;;31.98;23.77;;;;;;;8.57;100.00;99649.44;5030492;28;20108;-68
2022/03/30 05:50:59;;;;;;;29.85;23.38;;;;;;;9.01;100.00;99728.56;5030323;28;20029;-67
2022/03/30 05:53:25;;;;;;;34.55;24.08;;;;;;;9.63;100.00;99682.84;5030686;28;20037;-67
2022/03/30 05:55:51;;;;;;;32.42;22.95;;;;;;;9.87;100.00;99665.22;5030363;28;20033;-67
2022/03/30 05:58:16;;;;;;;29.73;23.05;;;;;;;10.29;100.00;99715.59;5030730;28;20034;-66
2022/03/30 06:00:42;;;;;;;35.80;22.10;;;;;;;10.35;100.00;99707.78;5030620;28;20037;-66
2022/03/30 06:03:10;;;;;;;31.60;22.85;;;;;;;10.76;100.00;99659.81;5030733;28;20042;-69
2022/03/30 06:05:36;;;;;;;30.92;21.15;;;;;;;10.85;100.00;99698.50;5030247;28;20072;-67
2022/03/30 06:08:02;;;;;;;28.25;21.42;;;;;;;10.95;100.00;99678.69;5030445;28;20025;-67
2022/03/30 06:10:28;;;;;;;29.35;22.67;;;;;;;11.68;100.00;99723.56;5031393;28;20032;-66
2022/03/30 06:12:57;;;;;;;28.88;21.33;;;;;;;11.96;100.00;99721.63;5034422;28;20025;-66
2022/03/30 06:15:23;;;;;;;27.88;21.05;;;;;;;11.91;100.00;99664.94;5034209;28;20065;-67
2022/03/30 06:17:50;;;;;;;27.70;21.88;;;;;;;12.15;100.00;99664.00;5033007;28;20380;-67
2022/03/30 06:20:16;;;;;;;33.25;21.35;;;;;;;12.57;100.00;99666.53;5032967;28;20199;-67
2022/03/30 06:22:42;;;;;;;30.25;21.42;;;;;;;12.71;100.00;99691.47;5034422;28;20029;-67
2022/03/30 06:25:11;;;;;;;29.02;21.08;;;;;;;12.68;100.00;99643.97;5034154;28;20408;-68
2022/03/30 06:27:38;;;;;;;29.42;21.02;;;;;;;13.30;100.00;99733.19;5034064;28;20510;-67
2022/03/30 06:30:05;;;;;;;31.13;21.33;;;;;;;12.90;100.00;99656.63;5034429;28;20037;-67
2022/03/30 06:32:31;;;;;;;27.70;19.40;;;;;;;14.23;100.00;99724.72;5034090;28;20080;-67
2022/03/30 06:34:56;;;;;;;21.92;16.70;;;;;;;13.09;100.00;99667.78;5033832;28;20099;-67
2022/03/30 06:37:22;;;;;;;34.65;21.33;;;;;;;13.33;100.00;99676.88;5034125;28;20029;-67
2022/03/30 06:39:48;;;;;;;20.42;15.52;;;;;;;14.18;100.00;99727.47;5034007;28;20116;-67
2022/03/30 06:42:14;;;;;;;26.40;15.77;;;;;;;13.98;100.00;99686.69;5034067;28;20030;-67
2022/03/30 06:44:39;;;;;;;23.88;15.23;;;;;;;13.88;100.00;99731.47;5033875;28;20021;-67
2022/03/30 06:47:05;;;;;;;21.30;13.48;;;;;;;13.94;100.00;99668.09;5032312;28;20145;-67
2022/03/30 06:49:30;;;;;;;29.83;18.98;;;;;;;13.64;100.00;99664.41;5033457;28;20484;-67
2022/03/30 06:51:56;;;;;;;22.52;13.50;;;;;;;14.24;100.00;99617.25;5033969;28;20025;-68
2022/03/30 06:54:21;;;;;;;20.25;13.43;;;;;;;14.52;100.00;99650.00;5034041;28;20120;-67
2022/03/30 06:56:47;;;;;;;18.08;13.43;;;;;;;14.79;100.00;99717.75;5033555;28;20025;-67
2022/03/30 06:59:13;;;;;;;19.20;14.35;;;;;;;15.45;100.00;99710.97;5033720;28;20103;-67
2022/03/30 07:01:39;;;;;;;26.58;14.43;;;;;;;14.25;100.00;99626.59;5032974;28;20037;-67
2022/03/30 07:04:04;;;;;;;17.80;13.68;;;;;;;15.36;100.00;99722.50;5032680;28;20030;-67
2022/03/30 07:06:30;;;;;;;23.50;14.73;;;;;;;14.83;100.00;99642.47;5032749;28;20033;-67
2022/03/30 07:11:40;;;;;;;24.02;14.93;;;;;;;16.04;100.00;99733.44;5032218;28;20111;-67
2022/03/30 07:14:05;;;;;;;21.25;14.73;;;;;;;14.87;100.00;99668.72;5031966;28;20092;-68
2022/03/30 07:16:31;;;;;;;25.42;15.82;;;;;;;14.84;100.00;99669.69;5031876;28;20500;-68
2022/03/30 07:18:56;;;;;;;27.65;16.67;;;;;;;15.49;100.00;99690.22;5030992;28;20034;-68
2022/03/30 07:21:23;;;;;;;22.33;13.98;;;;;;;14.97;100.00;99680.16;5031867;28;20030;-68
2022/03/30 07:23:48;;;;;;;35.00;21.52;;;;;;;15.57;100.00;99694.94;5031884;28;20045;-68
2022/03/30 07:26:13;;;;;;;19.42;13.15;;;;;;;13.73;100.00;99727.03;5032033;28;20064;-67
2022/03/30 07:28:39;;;;;;;19.77;13.57;;;;;;;14.39;100.00;99698.38;5031762;28;20025;-68
2022/03/30 07:31:04;;;;;;;17.33;13.07;;;;;;;15.06;100.00;99708.69;5031836;28;20083;-68
2022/03/30 07:33:32;;;;;;;20.48;13.48;;;;;;;15.79;100.00;99738.19;5031824;28;20472;-68
2022/03/30 07:35:58;;;;;;;20.08;13.35;;;;;;;14.85;100.00;99696.97;5032032;28;20108;-68
2022/03/30 07:38:23;;;;;;;20.27;13.30;;;;;;;14.28;100.00;99730.50;5030712;28;20033;-68
2022/03/30 07:40:50;;;;;;;21.35;13.98;;;;;;;14.63;100.00;99733.03;5031781;28;20033;-68
2022/03/30 07:43:17;;;;;;;18.35;13.00;;;;;;;15.67;100.00;99679.91;5031621;28;20037;-69
2022/03/30 07:45:43;;;;;;;17.40;12.05;;;;;;;16.66;100.00;99730.78;5031876;28;20026;-68
2022/03/30 07:48:09;;;;;;;22.48;13.73;;;;;;;14.90;100.00;99664.28;5031811;28;20025;-68
2022/03/30 07:50:35;;;;;;;21.25;13.02;;;;;;;16.42;100.00;99734.69;5031618;28;20030;-68
2022/03/30 07:53:01;;;;;;;20.63;13.52;;;;;;;15.18;100.00;99764.41;5031423;28;20083;-67
2022/03/30 07:55:28;;;;;;;19.80;13.02;;;;;;;15.95;100.00;99754.41;5031762;28;20520;-68
2022/03/30 07:57:54;;;;;;;17.60;12.35;;;;;;;16.94;100.00;99748.84;5030021;28;20030;-67
2022/03/30 08:00:21;;;;;;;22.25;12.80;;;;;;;16.56;91.90;99695.47;5032080;28;20457;-67
2022/03/30 08:02:49;;;;;;;22.67;12.60;;;;;;;16.90;92.09;99749.94;4988829;28;1240094;-68
2022/03/30 08:05:15;;;;;;;20.48;12.77;;;;;;;16.66;93.09;99756.47;5032460;28;20115;-67
2022/03/30 08:07:46;;;;;;;19.00;13.35;;;;;;;16.24;92.15;99746.00;5032606;28;20052;-67
2022/03/30 08:10:12;;;;;;;20.25;13.05;;;;;;;16.42;99.84;99701.34;5032454;28;20388;-68
2022/03/30 08:12:40;;;;;;;18.73;13.18;;;;;;;16.99;94.18;99746.00;5031877;28;20108;-67
2022/03/30 08:15:06;;;;;;;20.75;14.48;;;;;;;17.50;88.57;99731.84;5032601;28;20033;-68
2022/03/30 08:17:32;;;;;;;21.02;13.98;;;;;;;17.51;87.91;99679.53;5032246;28;20171;-68
2022/03/30 08:19:59;;;;;;;21.17;14.38;;;;;;;17.01;88.97;99678.25;5032469;28;20030;-68
2022/03/30 08:22:28;;;;;;;20.20;13.50;;;;;;;17.86;86.59;99727.06;5032181;28;20037;-69
2022/03/30 08:24:59;;;;;;;18.83;13.07;;;;;;;17.25;87.99;99735.06;5031760;28;20025;-68
2022/03/30 08:27:27;;;;;;;17.48;14.05;;;;;;;17.71;83.81;99713.38;5032342;28;20160;-68
2022/03/30 08:29:53;;;;;;;18.15;13.73;;;;;;;16.95;93.89;99717.13;5032473;28;20033;-67
2022/03/30 08:32:21;;;;;;;22.52;14.00;;;;;;;17.56;90.62;99724.63;5031852;28;20033;-68
2022/03/30 08:34:47;;;;;;;19.58;13.70;;;;;;;18.18;86.24;99651.25;5031216;28;20075;-68
2022/03/30 08:37:13;;;;;;;20.45;13.25;;;;;;;18.74;77.13;99627.78;5030587;28;20510;-67
2022/03/30 08:39:38;;;;;;;17.23;12.95;;;;;;;19.49;75.74;99722.28;5031505;28;20068;-68
2022/03/30 08:42:05;;;;;;;25.77;14.32;;;;;;;19.17;75.40;99712.50;5030515;28;20131;-67
2022/03/30 08:44:33;;;;;;;23.98;13.40;;;;;;;17.87;73.58;99700.41;5033062;28;20461;-68
2022/03/30 08:46:59;;;;;;;20.60;12.52;;;;;;;17.51;76.04;99680.34;5034826;28;20048;-68
2022/03/30 08:49:26;;;;;;;20.38;12.50;;;;;;;18.19;76.71;99705.19;5038486;28;20080;-67
2022/03/30 08:51:53;;;;;;;19.35;12.43;;;;;;;17.34;75.30;99727.63;5037422;28;20047;-67
2022/03/30 08:54:19;;;;;;;16.73;11.95;;;;;;;18.82;71.21;99710.50;5038371;28;20037;-65
2022/03/30 08:56:46;;;;;;;18.33;12.45;;;;;;;19.11;67.74;99726.63;5038518;28;20026;-66
2022/03/30 08:59:16;;;;;;;18.67;12.02;;;;;;;17.91;67.45;99719.88;5038079;28;20098;-66
2022/03/30 09:01:41;;;;;;;19.17;12.35;;;;;;;18.58;66.76;99681.22;5037834;28;20033;-66
2022/03/30 09:04:12;;;;;;;16.27;12.55;;;;;;;18.73;69.71;99700.84;5038536;28;20404;-66
2022/03/30 09:06:47;;;;;;;19.40;12.57;;;;;;;17.86;71.22;99707.31;5037813;28;20060;-67
2022/03/30 09:09:15;;;;;;;18.13;12.98;;;;;;;18.81;67.87;99692.59;5038918;28;20264;-66
2022/03/30 09:11:41;;;;;;;19.65;13.60;;;;;;;19.35;63.03;99695.81;5037183;28;20026;-66
2022/03/30 09:14:09;;;;;;;18.83;12.48;;;;;;;18.71;64.65;99650.34;5032128;28;20044;-66
2022/03/30 09:16:38;;;;;;;19.70;12.27;;;;;;;20.25;61.91;99639.50;5031117;28;20037;-67
2022/03/30 09:19:05;;;;;;;19.00;12.40;;;;;;;18.95;64.78;99661.59;5031152;28;20140;-66
2022/03/30 09:21:59;;;;;;;20.88;12.75;;;;;;;19.13;63.13;99677.56;5030855;28;20033;-67
2022/03/30 09:24:28;;;;;;;18.15;12.68;;;;;;;19.01;64.01;99625.91;5021952;28;20087;-67
2022/03/30 09:26:55;;;;;;;19.20;13.07;;;;;;;19.54;64.25;99609.34;5029614;28;20626;-67
2022/03/30 09:29:23;;;;;;;21.48;13.68;;;;;;;19.64;64.93;99667.09;5030721;28;20030;-67
2022/03/30 09:31:50;;;;;;;22.42;14.15;;;;;;;18.38;64.01;99607.00;5030809;28;20415;-67
2022/03/30 09:34:16;;;;;;;18.50;13.80;;;;;;;18.76;64.84;99571.81;5031124;28;20034;-67
2022/03/30 09:36:43;;;;;;;19.05;13.15;;;;;;;18.81;63.40;99661.69;5030972;28;20026;-67
2022/03/30 09:39:27;;;;;;;18.30;12.88;;;;;;;18.86;62.80;99632.09;5031079;28;20470;-67
2022/03/30 09:41:55;;;;;;;18.52;12.73;;;;;;;19.55;60.69;99598.06;5030550;28;20026;-66
2022/03/30 09:44:21;;;;;;;19.63;12.38;;;;;;;19.89;60.46;99575.84;5030355;28;20033;-67
2022/03/30 09:46:58;;;;;;;16.58;12.00;;;;;;;20.71;59.24;99648.06;5030969;28;20037;-67
2022/03/30 09:49:38;;;;;;;20.88;12.38;;;;;;;19.98;59.27;99634.56;5030906;28;20067;-67
2022/03/30 09:52:20;;;;;;;20.05;12.25;;;;;;;19.98;58.11;99626.81;5030553;28;20025;-67
2022/03/30 09:54:50;;;;;;;17.08;11.77;;;;;;;20.64;57.79;99588.28;5030224;28;20075;-67
2022/03/30 09:57:21;;;;;;;18.67;12.07;;;;;;;20.85;57.69;99610.84;5028955;28;20025;-67
2022/03/30 10:00:03;;;;;;;18.45;12.07;;;;;;;19.44;58.37;99545.63;5030766;28;20112;-67
2022/03/30 10:02:50;;;;;;;24.75;12.48;;;;;;;21.17;57.03;99622.19;5029081;28;20132;-67
2022/03/30 10:05:18;;;;;;;20.55;12.23;;;;;;;21.22;56.30;99561.41;5030008;28;20025;-66
2022/03/30 10:07:45;;;;;;;18.83;12.25;;;;;;;22.36;53.94;99604.78;5030421;28;20079;-66
2022/03/30 10:10:12;;;;;;;18.50;12.07;;;;;;;20.76;56.61;99562.47;5030596;28;20111;-68
2022/03/30 10:12:38;;;;;;;18.88;11.10;;;;;;;22.18;52.43;99565.69;5030739;28;20503;-69
2022/03/30 10:15:06;;;;;;;18.95;11.23;;;;;;;21.79;51.67;99493.81;5030400;28;20030;-68
2022/03/30 10:17:32;;;;;;;18.08;10.82;;;;;;;20.67;52.81;99600.16;5030363;28;20029;-69
2022/03/30 10:20:01;;;;;;;18.60;11.30;;;;;;;21.71;50.77;99562.69;5029996;28;20068;-69
2022/03/30 10:22:57;;;;;;;22.05;11.38;;;;;;;21.42;52.26;99594.28;5030423;28;20040;-69
2022/03/30 10:25:39;;;;;;;20.77;11.80;;;;;;;21.25;50.95;99601.72;5030112;28;20056;-68
2022/03/30 10:28:23;;;;;;;21.73;11.15;;;;;;;22.52;49.79;99561.13;5028844;28;20040;-68
2022/03/30 10:30:54;;;;;;;21.73;11.30;;;;;;;20.88;49.65;99597.72;5030479;28;20053;-68
2022/03/30 10:33:34;;;;;;;16.40;11.37;;;;;;;21.11;49.08;99522.63;5029163;28;20025;-67
2022/03/30 10:36:29;;;;;;;20.70;12.20;;;;;;;21.07;48.29;99577.28;5030235;28;20036;-67
2022/03/30 10:39:16;;;;;;;17.67;10.80;;;;;;;22.00;47.39;99559.41;5030021;28;20036;-67
2022/03/30 10:42:05;;;;;;;15.30;10.15;;;;;;;21.22;48.56;99560.56;5030016;28;20025;-67
2022/03/30 10:44:42;;;;;;;18.92;10.90;;;;;;;22.83;47.70;99549.81;5030129;28;20518;-67
2022/03/30 10:47:27;;;;;;;18.58;10.45;;;;;;;23.20;47.41;99557.84;5030109;28;20034;-67
2022/03/30 10:49:57;;;;;;;21.65;10.65;;;;;;;22.06;47.28;99496.75;5030128;28;20094;-68
2022/03/30 10:52:38;;;;;;;14.73;10.25;;;;;;;23.75;46.38;99543.47;5029993;28;20026;-67
2022/03/30 10:55:13;;;;;;;17.63;10.73;;;;;;;23.67;45.98;99533.75;5029865;28;20105;-67
2022/03/30 10:57:44;;;;;;;20.42;10.52;;;;;;;22.38;46.99;99535.53;5032583;28;20088;-67
2022/03/30 11:00:22;;;;;;;16.98;10.80;;;;;;;22.75;45.89;99473.63;5034005;28;20088;-67
2022/03/30 11:02:48;;;;;;;22.75;11.60;;;;;;;23.63;44.25;99526.41;5031983;28;20115;-67
2022/03/30 11:05:24;;;;;;;15.00;10.70;;;;;;;22.70;45.59;99527.66;5033392;28;20037;-67
2022/03/30 11:07:49;;;;;;;17.10;10.52;;;;;;;21.06;46.84;99527.34;5031745;28;20038;-67
2022/03/30 11:10:18;;;;;;;17.13;10.73;;;;;;;22.66;45.79;99511.53;5033306;28;20091;-66
2022/03/30 11:13:02;;;;;;;18.05;9.95;;;;;;;20.77;46.87;99440.06;5033349;28;20038;-67
2022/03/30 11:15:28;;;;;;;17.48;10.13;;;;;;;21.92;45.42;99522.16;5033321;28;20029;-68
2022/03/30 11:17:56;;;;;;;18.45;12.38;;;;;;;22.55;45.71;99516.78;5033720;28;20022;-67
2022/03/30 11:20:23;;;;;;;14.80;10.32;;;;;;;22.54;44.99;99511.75;5032862;28;20120;-67
2022/03/30 11:22:49;;;;;;;15.88;10.30;;;;;;;23.90;44.63;99441.63;5032161;28;20032;-68
2022/03/30 11:25:23;;;;;;;20.20;11.02;;;;;;;23.33;43.16;99484.97;5033069;28;20030;-68